createdAt,value
2019-04-20T00:01:30.288Z,15.08
2019-04-20T00:03:57.172Z,15.01
2019-04-20T00:06:31.659Z,14.94
2019-04-20T00:09:07.389Z,14.87
2019-04-20T00:11:47.593Z,14.79
2019-04-20T00:14:13.740Z,14.71
2019-04-20T00:16:38.076Z,14.63
2019-04-20T00:19:10.523Z,14.58
2019-04-20T00:21:47.269Z,14.56
2019-04-20T00:24:24.731Z,14.50
2019-04-20T00:27:20.733Z,14.49
2019-04-20T00:29:35.456Z,14.45
2019-04-20T00:32:00.553Z,14.43
2019-04-20T00:34:26.455Z,14.42
2019-04-20T00:36:54.096Z,14.41
2019-04-20T00:39:23.929Z,14.44
2019-04-20T00:42:01.077Z,14.47
2019-04-20T00:44:31.965Z,14.47
2019-04-20T00:47:13.213Z,14.48
2019-04-20T00:49:48.621Z,14.48
2019-04-20T00:52:27.523Z,14.48
2019-04-20T00:54:36.903Z,14.48
2019-04-20T00:57:21.747Z,14.48
2019-04-20T01:00:03.617Z,14.45
2019-04-20T01:02:20.852Z,14.41
2019-04-20T01:04:58.383Z,14.37
2019-04-20T01:07:36.041Z,14.34
2019-04-20T01:10:08.973Z,14.28
2019-04-20T01:12:40.630Z,14.23
2019-04-20T01:15:25.624Z,14.19
2019-04-20T01:17:44.929Z,14.17
2019-04-20T01:20:15.631Z,14.15
2019-04-20T01:22:53.740Z,14.15
2019-04-20T01:25:25.570Z,14.12
2019-04-20T01:28:09.089Z,14.10
2019-04-20T01:30:32.021Z,14.09
2019-04-20T01:33:09.011Z,14.07
2019-04-20T01:35:43.909Z,14.06
2019-04-20T01:38:16.897Z,14.04
2019-04-20T01:40:31.634Z,14.05
2019-04-20T01:43:01.603Z,14.04
2019-04-20T01:45:35.698Z,14.04
2019-04-20T01:48:03.434Z,14.05
2019-04-20T01:50:37.155Z,14.05
2019-04-20T01:53:21.241Z,14.06
2019-04-20T01:56:01.343Z,14.03
2019-04-20T01:58:54.966Z,14.01
2019-04-20T02:04:03.322Z,13.94
2019-04-20T02:06:42.367Z,13.91
2019-04-20T02:09:16.693Z,13.95
2019-04-20T02:11:50.380Z,13.93
2019-04-20T02:14:30.760Z,13.91
2019-04-20T02:17:06.562Z,13.91
2019-04-20T02:19:44.191Z,13.91
2019-04-20T02:22:13.680Z,13.92
2019-04-20T02:24:34.009Z,13.93
2019-04-20T02:27:06.189Z,13.97
2019-04-20T02:30:07.074Z,13.99
2019-04-20T02:32:47.151Z,14.00
2019-04-20T02:35:16.801Z,14.03
2019-04-20T02:38:03.134Z,14.06
2019-04-20T02:40:35.214Z,14.09
2019-04-20T02:42:59.224Z,14.12
2019-04-20T02:45:38.815Z,14.13
2019-04-20T02:50:38.002Z,14.16
2019-04-20T02:53:05.495Z,14.13
2019-04-20T02:55:44.838Z,14.13
2019-04-20T03:00:35.237Z,14.14
2019-04-20T03:03:06.206Z,14.14
2019-04-20T03:05:41.165Z,14.14
2019-04-20T03:08:20.589Z,14.12
2019-04-20T03:11:01.323Z,14.11
2019-04-20T03:13:32.332Z,14.13
2019-04-20T03:16:08.681Z,14.12
2019-04-20T03:18:37.322Z,14.12
2019-04-20T03:21:08.417Z,14.08
2019-04-20T03:23:45.623Z,14.06
2019-04-20T03:26:21.347Z,14.02
2019-04-20T03:28:58.898Z,13.97
2019-04-20T03:31:56.451Z,13.90
2019-04-20T03:34:50.484Z,13.86
2019-04-20T03:36:50.030Z,13.84
2019-04-20T03:39:09.793Z,13.84
2019-04-20T03:41:31.009Z,13.79
2019-04-20T03:44:00.903Z,13.81
2019-04-20T03:46:36.617Z,13.78
2019-04-20T03:49:15.756Z,13.75
2019-04-20T03:51:53.487Z,13.75
2019-04-20T03:54:32.096Z,13.72
2019-04-20T04:00:04.683Z,13.59
2019-04-20T04:03:00.422Z,13.57
2019-04-20T04:05:13.521Z,13.52
2019-04-20T04:07:38.091Z,13.50
2019-04-20T04:10:17.284Z,13.49
2019-04-20T04:13:14.705Z,13.47
2019-04-20T04:15:52.284Z,13.37
2019-04-20T04:18:26.125Z,13.36
2019-04-20T04:20:59.057Z,13.34
2019-04-20T04:23:40.797Z,13.35
2019-04-20T04:26:09.730Z,13.34
2019-04-20T04:28:40.882Z,13.37
2019-04-20T04:31:12.060Z,13.34
2019-04-20T04:36:15.517Z,13.31
2019-04-20T04:38:53.485Z,13.27
2019-04-20T04:41:23.974Z,13.21
2019-04-20T04:43:49.829Z,13.17
2019-04-20T04:46:04.016Z,13.13
2019-04-20T04:48:37.254Z,13.16
2019-04-20T04:51:29.435Z,13.21
2019-04-20T04:54:05.837Z,13.28
2019-04-20T04:56:27.471Z,13.41
2019-04-20T04:58:58.192Z,13.58
2019-04-20T05:01:31.837Z,13.79
2019-04-20T05:04:21.605Z,14.05
2019-04-20T05:06:45.816Z,14.27
2019-04-20T05:09:06.027Z,14.46
2019-04-20T05:11:34.976Z,14.60
2019-04-20T05:14:10.238Z,14.76
2019-04-20T05:16:49.924Z,15.01
2019-04-20T05:19:29.566Z,15.41
2019-04-20T05:22:04.084Z,15.92
2019-04-20T05:24:30.491Z,16.54
2019-04-20T05:27:07.190Z,17.23
2019-04-20T05:29:24.918Z,17.94
2019-04-20T05:31:57.172Z,18.65
2019-04-20T05:34:45.337Z,19.33
2019-04-20T05:37:24.034Z,20.06
2019-04-20T05:39:48.589Z,20.77
2019-04-20T05:42:18.905Z,21.43
2019-04-20T05:44:49.839Z,22.11
2019-04-20T05:47:19.538Z,22.76
2019-04-20T05:49:49.958Z,23.38
2019-04-20T05:52:43.866Z,23.98
2019-04-20T05:54:58.407Z,24.53
2019-04-20T06:00:03.596Z,25.48
2019-04-20T06:02:29.096Z,25.86
2019-04-20T06:07:31.088Z,26.50
2019-04-20T06:10:07.825Z,26.80
2019-04-20T06:12:37.340Z,27.10
2019-04-20T06:15:15.630Z,27.28
2019-04-20T06:18:01.062Z,27.38
2019-04-20T06:20:37.943Z,27.45
2019-04-20T06:23:28.925Z,27.54
2019-04-20T06:26:17.188Z,27.64
2019-04-20T06:28:26.826Z,27.80
2019-04-20T06:30:52.800Z,27.96
2019-04-20T06:34:27.596Z,27.97
2019-04-20T06:39:21.331Z,27.84
2019-04-20T06:42:08.429Z,27.73
2019-04-20T06:44:30.356Z,27.65
2019-04-20T06:47:03.094Z,27.69
2019-04-20T06:49:32.053Z,27.79
2019-04-20T06:52:23.468Z,27.91
2019-04-20T06:58:49.845Z,28.33
2019-04-20T07:22:19.755Z,29.34
2019-04-20T07:24:40.297Z,29.31
2019-04-20T07:27:06.467Z,29.38
2019-04-20T07:29:41.164Z,29.49
2019-04-20T07:32:01.452Z,29.66
2019-04-20T07:34:40.160Z,29.89
2019-04-20T07:39:48.260Z,30.02
2019-04-20T07:42:23.041Z,29.93
2019-04-20T07:44:55.469Z,29.91
2019-04-20T07:47:33.080Z,29.87
2019-04-20T07:49:52.021Z,29.80
2019-04-20T07:52:06.190Z,29.68
2019-04-20T07:55:22.555Z,29.53
2019-04-20T07:57:27.198Z,29.37
2019-04-20T07:59:59.037Z,29.40
2019-04-20T08:02:51.735Z,29.40
2019-04-20T08:05:18.210Z,29.33
2019-04-20T08:07:43.335Z,29.34
2019-04-20T08:10:12.222Z,29.32
2019-04-20T08:13:03.379Z,29.34
2019-04-20T08:16:33.118Z,29.43
2019-04-20T08:18:02.750Z,29.59
2019-04-20T08:20:37.063Z,29.80
2019-04-20T08:23:05.064Z,30.07
2019-04-20T08:25:28.061Z,30.41
2019-04-20T08:27:54.961Z,30.87
2019-04-20T08:31:02.439Z,31.31
2019-04-20T08:33:34.984Z,31.64
2019-04-20T08:36:11.872Z,31.93
2019-04-20T08:41:09.681Z,32.34
2019-04-20T08:43:47.172Z,32.47
2019-04-20T08:46:17.722Z,32.56
2019-04-20T08:48:46.734Z,32.65
2019-04-20T08:51:14.581Z,32.79
2019-04-20T08:53:47.080Z,32.84
2019-04-20T08:56:27.159Z,32.91
2019-04-20T08:58:43.425Z,33.02
2019-04-20T09:01:18.412Z,33.03
2019-04-20T09:03:56.479Z,33.08
2019-04-20T09:06:33.699Z,33.15
2019-04-20T09:08:57.751Z,33.23
2019-04-20T09:11:41.513Z,33.23
2019-04-20T09:31:39.513Z,31.83
2019-04-20T09:34:14.446Z,31.83
2019-04-20T09:36:44.602Z,31.64
2019-04-20T09:39:14.981Z,31.38
2019-04-20T09:41:59.139Z,31.26
2019-04-20T09:44:08.927Z,31.16
2019-04-20T09:46:45.270Z,31.09
2019-04-20T09:49:20.124Z,31.00
2019-04-20T09:51:57.480Z,30.88
2019-04-20T09:54:32.573Z,30.86
2019-04-20T09:57:04.365Z,30.78
2019-04-20T09:59:33.548Z,30.66
2019-04-20T10:01:59.129Z,30.56
2019-04-20T10:04:19.588Z,30.47
2019-04-20T10:06:49.682Z,30.38
2019-04-20T10:09:26.363Z,30.33
2019-04-20T10:11:50.660Z,30.32
2019-04-20T10:14:20.191Z,30.30
2019-04-20T10:16:49.768Z,30.26
2019-04-20T10:19:27.805Z,30.25
2019-04-20T10:21:50.802Z,30.24
2019-04-20T10:24:20.876Z,30.20
2019-04-20T10:26:50.597Z,30.20
2019-04-20T10:29:20.086Z,30.13
2019-04-20T10:31:56.665Z,30.17
2019-04-20T10:34:23.933Z,30.23
2019-04-20T10:36:53.643Z,30.25
2019-04-20T10:39:24.907Z,30.31
2019-04-20T10:41:58.977Z,30.39
2019-04-20T10:44:27.159Z,30.46
2019-04-20T10:46:58.671Z,30.57
2019-04-20T10:49:29.139Z,30.74
2019-04-20T10:51:59.989Z,30.89
2019-04-20T10:54:30.295Z,30.98
2019-04-20T10:57:06.078Z,30.99
2019-04-20T10:59:35.622Z,30.98
2019-04-20T11:02:05.721Z,30.94
2019-04-20T11:04:35.253Z,30.77
2019-04-20T11:07:05.603Z,30.64
2019-04-20T11:09:40.707Z,30.62
2019-04-20T11:12:10.698Z,30.63
2019-04-20T11:14:43.459Z,30.73
2019-04-20T11:17:12.268Z,30.81
2019-04-20T11:19:43.357Z,30.79
2019-04-20T11:22:14.497Z,30.72
2019-04-20T11:24:44.144Z,30.76
2019-04-20T11:27:14.267Z,30.81
2019-04-20T11:29:44.417Z,30.80
2019-04-20T11:32:14.635Z,30.78
2019-04-20T11:34:45.422Z,30.81
2019-04-20T11:37:15.341Z,30.87
2019-04-20T11:39:45.645Z,30.99
2019-04-20T11:42:15.759Z,30.95
2019-04-20T11:44:46.722Z,30.81
2019-04-20T11:47:16.761Z,30.66
2019-04-20T11:49:46.383Z,30.51
2019-04-20T11:52:19.714Z,30.29
2019-04-20T11:54:48.502Z,29.99
2019-04-20T11:57:19.576Z,29.73
2019-04-20T11:59:49.211Z,29.51
2019-04-20T12:02:40.906Z,29.38
2019-04-20T12:05:23.941Z,29.13
2019-04-20T12:08:03.040Z,28.96
2019-04-20T12:10:35.026Z,28.76
2019-04-20T12:13:24.799Z,28.59
2019-04-20T12:15:55.659Z,28.43
2019-04-20T12:18:25.487Z,28.38
2019-04-20T12:21:14.803Z,28.35
2019-04-20T12:23:44.615Z,28.28
2019-04-20T12:26:16.090Z,28.22
2019-04-20T12:28:45.576Z,28.22
2019-04-20T12:31:20.293Z,28.27
2019-04-20T12:33:46.518Z,28.33
2019-04-20T12:36:16.475Z,28.35
2019-04-20T12:38:46.421Z,28.34
2019-04-20T12:41:16.187Z,28.35
2019-04-20T12:43:56.029Z,28.35
2019-04-20T12:46:26.777Z,28.34
2019-04-20T12:48:57.795Z,28.32
2019-04-20T12:51:33.912Z,28.35
2019-04-20T12:54:10.787Z,28.39
2019-04-20T12:56:40.528Z,28.42
2019-04-20T12:59:11.530Z,28.44
2019-04-20T13:01:41.637Z,28.44
2019-04-20T13:04:12.101Z,28.40
2019-04-20T13:06:42.796Z,28.33
2019-04-20T13:09:14.470Z,28.22
2019-04-20T13:12:01.118Z,28.17
2019-04-20T13:15:04.682Z,28.15
2019-04-20T13:17:38.004Z,28.09
2019-04-20T13:23:26.850Z,28.04
2019-04-20T13:25:57.126Z,28.03
2019-04-20T13:28:26.977Z,28.08
2019-04-20T13:30:57.764Z,28.12
2019-04-20T13:33:27.366Z,28.13
2019-04-20T13:35:56.785Z,28.11
2019-04-20T13:38:26.304Z,28.08
2019-04-20T13:40:55.841Z,28.07
2019-04-20T13:43:25.867Z,28.06
2019-04-20T13:45:55.334Z,28.07
2019-04-20T13:48:24.871Z,28.06
2019-04-20T13:50:54.344Z,28.08
2019-04-20T13:53:23.711Z,28.08
2019-04-20T13:55:54.050Z,28.10
2019-04-20T13:58:41.039Z,28.13
2019-04-20T14:01:12.605Z,28.10
2019-04-20T14:03:42.907Z,28.10
2019-04-20T14:06:33.117Z,28.13
2019-04-20T14:09:05.559Z,28.14
2019-04-20T14:11:35.718Z,28.22
2019-04-20T14:14:08.119Z,28.24
2019-04-20T14:16:37.237Z,28.29
2019-04-20T14:19:07.239Z,28.32
2019-04-20T14:21:36.706Z,28.29
2019-04-20T14:24:06.796Z,28.26
2019-04-20T14:26:40.363Z,28.21
2019-04-20T14:29:07.469Z,28.14
2019-04-20T14:31:37.513Z,28.08
2019-04-20T14:34:07.111Z,27.99
2019-04-20T14:36:37.100Z,27.91
2019-04-20T14:39:10.111Z,27.86
2019-04-20T14:41:40.372Z,27.85
2019-04-20T14:44:10.072Z,27.84
2019-04-20T14:46:40.055Z,27.85
2019-04-20T14:49:10.439Z,27.84
2019-04-20T14:51:40.039Z,27.79
2019-04-20T14:54:09.844Z,27.71
2019-04-20T14:56:43.458Z,27.64
2019-04-20T14:59:15.695Z,27.60
2019-04-20T15:01:50.398Z,27.56
2019-04-20T15:04:23.200Z,27.56
2019-04-20T15:06:52.675Z,27.55
2019-04-20T15:09:22.119Z,27.57
2019-04-20T15:11:52.707Z,27.62
2019-04-20T15:14:22.814Z,27.66
2019-04-20T15:16:52.869Z,27.67
2019-04-20T15:19:25.304Z,27.64
2019-04-20T15:21:59.882Z,27.58
2019-04-20T15:24:29.444Z,27.56
2019-04-20T15:27:00.256Z,27.52
2019-04-20T15:29:30.521Z,27.51
2019-04-20T15:32:00.107Z,27.48
2019-04-20T15:34:30.835Z,27.47
2019-04-20T15:37:00.333Z,27.45
2019-04-20T15:39:30.541Z,27.39
2019-04-20T15:42:01.249Z,27.32
2019-04-20T15:44:31.446Z,27.27
2019-04-20T15:47:01.449Z,27.23
2019-04-20T15:49:31.506Z,27.23
2019-04-20T15:52:01.787Z,27.25
2019-04-20T15:54:31.659Z,27.27
2019-04-20T15:57:07.450Z,27.26
2019-04-20T15:59:32.721Z,27.22
2019-04-20T16:02:21.056Z,27.18
2019-04-20T16:04:58.434Z,27.12
2019-04-20T16:07:32.901Z,27.07
2019-04-20T16:09:59.142Z,27.04
2019-04-20T16:12:29.137Z,27.02
2019-04-20T16:14:59.667Z,27.00
2019-04-20T16:17:36.844Z,26.98
2019-04-20T16:20:08.339Z,26.93
2019-04-20T16:22:32.480Z,26.90
2019-04-20T16:25:15.472Z,26.87
2019-04-20T16:27:45.636Z,26.82
2019-04-20T16:30:15.818Z,26.79
2019-04-20T16:32:45.171Z,26.77
2019-04-20T16:35:16.220Z,26.76
2019-04-20T16:37:46.473Z,26.75
2019-04-20T16:40:17.602Z,26.76
2019-04-20T16:42:48.007Z,26.76
2019-04-20T16:45:19.051Z,26.74
2019-04-20T16:47:48.627Z,26.72
2019-04-20T16:50:19.311Z,26.69
2019-04-20T16:52:48.928Z,26.64
2019-04-20T16:55:18.872Z,26.60
2019-04-20T16:57:51.208Z,26.57
2019-04-20T17:00:23.261Z,26.51
2019-04-20T17:05:15.196Z,26.44
2019-04-20T17:07:47.027Z,26.42
2019-04-20T17:10:18.190Z,26.40
2019-04-20T17:12:48.072Z,26.36
2019-04-20T17:15:19.530Z,26.32
2019-04-20T17:17:50.250Z,26.29
2019-04-20T17:20:21.998Z,26.24
2019-04-20T17:22:52.390Z,26.19
2019-04-20T17:25:22.012Z,26.14
2019-04-20T17:27:59.613Z,26.08
2019-04-20T17:30:31.553Z,26.01
2019-04-20T17:35:52.804Z,25.85
2019-04-20T17:38:11.671Z,25.77
2019-04-20T17:41:00.034Z,25.72
2019-04-20T17:43:23.272Z,25.65
2019-04-20T17:45:54.329Z,25.59
2019-04-20T17:48:28.281Z,25.54
2019-04-20T17:51:15.392Z,25.49
2019-04-20T17:53:44.641Z,25.44
2019-04-20T17:56:10.317Z,25.34
2019-04-20T17:58:41.359Z,25.33
2019-04-20T18:01:24.325Z,25.29
2019-04-20T18:04:24.442Z,25.25
2019-04-20T18:06:41.641Z,25.23
2019-04-20T18:09:05.341Z,25.19
2019-04-20T18:11:27.017Z,25.14
2019-04-20T18:14:04.474Z,25.09
2019-04-20T18:16:52.458Z,25.03
2019-04-20T18:19:22.903Z,24.93
2019-04-20T18:21:51.819Z,24.82
2019-04-20T18:24:46.388Z,24.73
2019-04-20T18:27:14.210Z,24.63
2019-04-20T18:29:45.479Z,24.53
2019-04-20T18:31:59.547Z,24.42
2019-04-20T18:34:31.915Z,24.30
2019-04-20T18:37:07.732Z,24.20
2019-04-20T18:39:37.430Z,24.08
2019-04-20T18:42:12.983Z,23.96
2019-04-20T18:44:57.150Z,23.84
2019-04-20T18:47:31.871Z,23.74
2019-04-20T18:49:48.842Z,23.63
2019-04-20T18:52:11.485Z,23.55
2019-04-20T18:54:44.908Z,23.45
2019-04-20T18:57:18.048Z,23.35
2019-04-20T18:59:50.482Z,23.26
2019-04-20T19:02:22.685Z,23.16
2019-04-20T19:04:48.086Z,23.05
2019-04-20T19:07:17.661Z,22.97
2019-04-20T19:09:53.278Z,22.98
2019-04-20T19:12:31.208Z,22.88
2019-04-20T19:15:28.016Z,22.70
2019-04-20T19:17:53.791Z,22.56
2019-04-20T19:20:23.316Z,22.43
2019-04-20T19:22:53.243Z,22.34
2019-04-20T19:25:27.351Z,22.26
2019-04-20T19:27:56.579Z,22.19
2019-04-20T19:30:35.387Z,22.12
2019-04-20T19:33:16.265Z,22.05
2019-04-20T19:35:41.654Z,21.97
2019-04-20T19:38:09.598Z,21.91
2019-04-20T19:40:45.742Z,21.87
2019-04-20T19:43:15.569Z,21.81
2019-04-20T19:46:05.606Z,21.78
2019-04-20T19:48:22.101Z,21.75
2019-04-20T19:50:58.894Z,21.74
2019-04-20T19:53:33.544Z,21.71
2019-04-20T19:55:52.979Z,21.70
2019-04-20T19:58:26.417Z,21.67
2019-04-20T20:00:53.419Z,21.62
2019-04-20T20:03:21.971Z,21.55
2019-04-20T20:05:54.830Z,21.48
2019-04-20T20:08:26.830Z,21.44
2019-04-20T20:10:57.807Z,21.40
2019-04-20T20:13:36.143Z,21.37
2019-04-20T20:16:08.931Z,21.36
2019-04-20T20:18:45.262Z,21.37
2019-04-20T20:21:19.084Z,21.36
2019-04-20T20:23:32.149Z,21.37
2019-04-20T20:26:05.065Z,21.37
2019-04-20T20:28:43.556Z,21.36
2019-04-20T20:31:17.060Z,21.34
2019-04-20T20:33:51.070Z,21.31
2019-04-20T20:36:12.691Z,21.26
2019-04-20T20:38:44.855Z,21.21
2019-04-20T20:41:17.927Z,21.17
2019-04-20T20:43:52.302Z,21.12
2019-04-20T20:46:24.575Z,21.06
2019-04-20T20:49:04.936Z,20.98
2019-04-20T20:51:39.427Z,20.95
2019-04-20T20:53:56.467Z,20.88
2019-04-20T20:56:24.359Z,20.84
2019-04-20T20:58:59.518Z,20.81
2019-04-20T21:01:25.357Z,20.76
2019-04-20T21:03:53.019Z,20.72
2019-04-20T21:06:22.510Z,20.65
2019-04-20T21:08:54.889Z,20.58
2019-04-20T21:11:27.266Z,20.49
2019-04-20T21:13:55.748Z,20.40
2019-04-20T21:16:41.083Z,20.32
2019-04-20T21:19:21.401Z,20.22
2019-04-20T21:21:49.567Z,20.14
2019-04-20T21:24:15.976Z,20.05
2019-04-20T21:26:44.312Z,19.97
2019-04-20T21:29:14.002Z,19.92
2019-04-20T21:31:54.450Z,19.88
2019-04-20T21:34:18.608Z,19.83
2019-04-20T21:36:47.172Z,19.81
2019-04-20T21:39:32.409Z,19.78
2019-04-20T21:41:56.892Z,19.77
2019-04-20T21:44:25.260Z,19.76
2019-04-20T21:46:54.587Z,19.77
2019-04-20T21:49:37.602Z,19.76
2019-04-20T21:52:00.882Z,19.76
2019-04-20T21:54:25.449Z,19.76
2019-04-20T21:57:01.630Z,19.76
2019-04-20T21:59:32.046Z,19.75
2019-04-20T22:02:05.333Z,19.71
2019-04-20T22:04:29.170Z,19.66
2019-04-20T22:06:58.756Z,19.58
2019-04-20T22:09:34.524Z,19.51
2019-04-20T22:12:00.155Z,19.38
2019-04-20T22:14:33.623Z,19.25
2019-04-20T22:17:03.627Z,19.14
2019-04-20T22:19:41.964Z,19.01
2019-04-20T22:22:15.148Z,18.89
2019-04-20T22:24:53.943Z,18.80
2019-04-20T22:27:30.065Z,18.73
2019-04-20T22:29:57.568Z,18.63
2019-04-20T22:32:28.121Z,18.57
2019-04-20T22:35:04.107Z,18.52
2019-04-20T22:37:32.075Z,18.45
2019-04-20T22:40:03.059Z,18.37
2019-04-20T22:42:40.122Z,18.28
2019-04-20T22:45:09.840Z,18.20
2019-04-20T22:47:39.030Z,18.11
2019-04-20T22:50:25.477Z,18.03
2019-04-20T22:52:48.653Z,17.98
2019-04-20T22:55:38.940Z,17.89
2019-04-20T22:57:55.107Z,17.84
2019-04-20T23:00:29.280Z,17.73
2019-04-20T23:02:47.132Z,17.62
2019-04-20T23:05:16.544Z,17.53
2019-04-20T23:07:46.647Z,17.46
2019-04-20T23:10:19.126Z,17.40
2019-04-20T23:12:51.384Z,17.33
2019-04-20T23:15:20.426Z,17.26
2019-04-20T23:17:52.076Z,17.18
2019-04-20T23:20:26.698Z,17.12
2019-04-20T23:22:53.052Z,17.05
2019-04-20T23:25:22.949Z,16.99
2019-04-20T23:28:02.844Z,16.96
2019-04-20T23:30:28.973Z,16.91
2019-04-20T23:32:56.015Z,16.85
2019-04-20T23:35:27.064Z,16.78
2019-04-20T23:38:04.333Z,16.70
2019-04-20T23:40:29.798Z,16.61
2019-04-20T23:43:23.401Z,16.53
2019-04-20T23:45:54.827Z,16.40
2019-04-20T23:48:33.716Z,16.30
2019-04-20T23:51:17.446Z,16.24
2019-04-20T23:53:43.775Z,16.20
2019-04-20T23:56:03.652Z,16.15
2019-04-20T23:58:40.616Z,16.13
